Time;durP1;ratioP1;P1;durP2;ratioP2;P2;SDS_P1;SDS_P2;PMS_P1;PMS_P2;Temp;Humidity;BMP_temperature;BMP_pressure;BME280_temperature;BME280_humidity;BME280_pressure;Samples;Min_cycle;Max_cycle;Signal;HPM_P1;HPM_P2
2023/07/22 00:00:58;;;;;;;3.10;2.30;;;;;;;;;;5058486;28;21266;-70
2023/07/22 00:03:26;;;;;;;4.27;3.13;;;;;;;;;;5035446;28;20719;-68
2023/07/22 00:06:04;;;;;;;3.43;2.27;;;;;;;;;;5046841;28;20714;-69
2023/07/22 00:08:33;;;;;;;2.63;2.43;;;;;;;;;;5037041;28;20675;-68
2023/07/22 00:11:03;;;;;;;2.73;2.53;;;;;;;;;;5038313;28;20730;-67
2023/07/22 00:13:31;;;;;;;3.10;2.90;;;;;;;;;;5037629;28;20691;-69
2023/07/22 00:16:00;;;;;;;3.13;2.60;;;;;;;;;;5037189;28;20695;-67
2023/07/22 00:18:29;;;;;;;2.20;2.03;;;;;;;;;;5036488;28;20735;-67
2023/07/22 00:20:57;;;;;;;2.93;2.63;;;;;;;;;;5039973;28;20711;-68
2023/07/22 00:23:25;;;;;;;2.93;2.33;;;;;;;;;;5056897;28;20714;-67
2023/07/22 00:25:54;;;;;;;2.90;2.70;;;;;;;;;;5056923;28;20702;-67
2023/07/22 00:28:23;;;;;;;3.10;2.20;;;;;;;;;;5057259;28;20679;-67
2023/07/22 00:30:53;;;;;;;2.70;2.50;;;;;;;;;;5058581;28;20679;-68
2023/07/22 00:33:21;;;;;;;2.87;2.67;;;;;;;;;;5056342;28;20989;-67
2023/07/22 00:35:51;;;;;;;2.47;2.37;;;;;;;;;;5059460;28;20702;-68
2023/07/22 00:38:19;;;;;;;7.00;2.50;;;;;;;;;;5057726;28;20724;-69
2023/07/22 00:40:48;;;;;;;3.40;2.87;;;;;;;;;;5058570;28;20676;-68
2023/07/22 00:43:16;;;;;;;4.13;3.07;;;;;;;;;;5056932;28;20718;-68
2023/07/22 00:45:46;;;;;;;3.77;3.10;;;;;;;;;;5057482;28;20672;-69
2023/07/22 00:48:15;;;;;;;4.40;3.03;;;;;;;;;;5056731;28;20615;-71
2023/07/22 00:50:43;;;;;;;4.47;2.70;;;;;;;;;;5058077;28;20786;-67
2023/07/22 00:53:12;;;;;;;2.60;2.40;;;;;;;;;;5055639;28;21272;-68
2023/07/22 00:55:40;;;;;;;2.80;2.30;;;;;;;;;;5058031;28;20681;-69
2023/07/22 00:58:09;;;;;;;2.60;2.40;;;;;;;;;;5048743;28;20742;-68
2023/07/22 01:00:37;;;;;;;2.60;2.40;;;;;;;;;;5036127;28;20779;-73
2023/07/22 01:03:07;;;;;;;3.50;2.50;;;;;;;;;;5037848;28;20601;-73
2023/07/22 01:05:36;;;;;;;2.93;2.73;;;;;;;;;;5043529;28;20578;-73
2023/07/22 01:08:05;;;;;;;5.80;2.73;;;;;;;;;;5040266;28;20602;-73
2023/07/22 01:10:33;;;;;;;3.73;2.50;;;;;;;;;;5029778;28;20640;-73
2023/07/22 01:13:01;;;;;;;2.60;2.40;;;;;;;;;;5030623;28;20631;-73
2023/07/22 01:15:29;;;;;;;2.47;2.37;;;;;;;;;;5047168;28;20602;-73
2023/07/22 01:18:01;;;;;;;3.40;2.83;;;;;;;;;;5048460;28;20730;-73
2023/07/22 01:20:31;;;;;;;3.03;2.83;;;;;;;;;;5032729;28;20641;-73
2023/07/22 01:23:00;;;;;;;3.83;2.63;;;;;;;;;;5049625;28;20603;-73
2023/07/22 01:25:29;;;;;;;2.67;2.50;;;;;;;;;;5049920;28;21144;-73
2023/07/22 01:27:58;;;;;;;2.73;2.53;;;;;;;;;;5045667;28;20598;-73
2023/07/22 01:30:27;;;;;;;5.03;3.43;;;;;;;;;;5045454;28;21422;-73
2023/07/22 01:32:55;;;;;;;3.43;2.70;;;;;;;;;;5054017;28;20609;-73
2023/07/22 01:35:23;;;;;;;5.40;3.00;;;;;;;;;;5054157;28;20651;-73
2023/07/22 01:37:51;;;;;;;3.13;2.90;;;;;;;;;;5042627;28;20655;-73
2023/07/22 01:40:23;;;;;;;3.07;2.87;;;;;;;;;;5034544;28;21357;-73
2023/07/22 01:42:51;;;;;;;3.30;3.10;;;;;;;;;;5048006;28;20974;-73
2023/07/22 01:45:19;;;;;;;2.90;2.70;;;;;;;;;;5043105;28;20627;-73
2023/07/22 01:47:48;;;;;;;5.53;2.70;;;;;;;;;;5043603;28;20660;-73
2023/07/22 01:50:18;;;;;;;3.97;2.63;;;;;;;;;;5056467;28;20664;-73
2023/07/22 01:52:47;;;;;;;2.57;2.37;;;;;;;;;;5026109;28;20642;-73
2023/07/22 01:55:15;;;;;;;8.10;2.93;;;;;;;;;;5035823;28;20982;-74
2023/07/22 01:57:45;;;;;;;2.80;2.53;;;;;;;;;;5044968;28;21112;-74
2023/07/22 02:00:15;;;;;;;2.83;2.53;;;;;;;;;;5050109;28;20959;-74
2023/07/22 02:02:43;;;;;;;3.10;2.80;;;;;;;;;;5044222;28;20630;-74
2023/07/22 02:05:12;;;;;;;2.63;2.53;;;;;;;;;;5034106;28;20612;-74
2023/07/22 02:07:40;;;;;;;2.50;2.30;;;;;;;;;;5047275;28;20649;-72
2023/07/22 02:10:09;;;;;;;3.77;3.07;;;;;;;;;;5052500;28;20639;-74
2023/07/22 02:12:37;;;;;;;2.50;2.33;;;;;;;;;;5055215;28;20664;-74
2023/07/22 02:15:08;;;;;;;3.30;3.00;;;;;;;;;;5054780;28;21358;-73
2023/07/22 02:17:36;;;;;;;2.70;2.50;;;;;;;;;;5054479;28;20622;-74
2023/07/22 02:20:06;;;;;;;4.43;2.67;;;;;;;;;;5046373;28;20626;-74
2023/07/22 02:22:34;;;;;;;3.67;2.80;;;;;;;;;;5034258;28;20616;-74
2023/07/22 02:25:03;;;;;;;3.20;3.00;;;;;;;;;;5032432;28;20626;-73
2023/07/22 02:27:31;;;;;;;5.03;3.10;;;;;;;;;;5033743;28;20608;-74
2023/07/22 02:29:59;;;;;;;3.53;2.87;;;;;;;;;;5034320;28;20593;-73
2023/07/22 02:32:29;;;;;;;2.83;2.47;;;;;;;;;;5033800;28;20616;-74
2023/07/22 02:34:57;;;;;;;3.20;2.90;;;;;;;;;;5037192;28;20627;-74
2023/07/22 02:37:25;;;;;;;2.83;2.63;;;;;;;;;;5041814;28;20612;-73
2023/07/22 02:39:56;;;;;;;3.00;2.80;;;;;;;;;;5033935;28;20618;-74
2023/07/22 02:42:24;;;;;;;3.50;3.27;;;;;;;;;;5036710;28;20579;-73
2023/07/22 02:44:52;;;;;;;3.13;2.93;;;;;;;;;;5040624;28;20598;-73
2023/07/22 02:47:21;;;;;;;3.83;3.37;;;;;;;;;;5033882;28;20583;-74
2023/07/22 02:49:50;;;;;;;3.30;3.03;;;;;;;;;;5053108;28;20599;-75
2023/07/22 02:52:18;;;;;;;4.10;3.50;;;;;;;;;;5053876;28;20949;-74
2023/07/22 02:55:05;;;;;;;3.23;2.93;;;;;;;;;;5053569;28;20580;-74
2023/07/22 02:57:33;;;;;;;3.83;3.50;;;;;;;;;;5053560;28;20575;-74
2023/07/22 03:00:07;;;;;;;6.43;3.40;;;;;;;;;;5050042;28;20660;-74
2023/07/22 03:02:35;;;;;;;4.73;3.00;;;;;;;;;;5014725;28;20612;-74
2023/07/22 03:05:07;;;;;;;3.97;3.60;;;;;;;;;;5032592;28;21042;-73
2023/07/22 03:07:35;;;;;;;5.83;3.30;;;;;;;;;;5032285;28;20600;-74
2023/07/22 03:10:05;;;;;;;3.83;3.53;;;;;;;;;;5032877;28;20654;-72
2023/07/22 03:12:34;;;;;;;2.90;2.70;;;;;;;;;;5044448;28;20650;-75
2023/07/22 03:15:03;;;;;;;2.70;2.50;;;;;;;;;;5033646;28;20616;-74
2023/07/22 03:17:31;;;;;;;3.17;2.97;;;;;;;;;;5032076;28;20661;-73
2023/07/22 03:20:00;;;;;;;2.77;2.57;;;;;;;;;;5033179;28;20656;-74
2023/07/22 03:22:31;;;;;;;3.50;3.30;;;;;;;;;;5033368;28;20648;-74
2023/07/22 03:24:59;;;;;;;3.10;2.90;;;;;;;;;;5033269;28;20612;-74
2023/07/22 03:27:27;;;;;;;3.23;3.03;;;;;;;;;;5033529;28;20618;-74
2023/07/22 03:29:55;;;;;;;3.60;3.00;;;;;;;;;;5034266;28;20623;-74
2023/07/22 03:32:23;;;;;;;7.93;3.57;;;;;;;;;;5035506;28;20639;-74
2023/07/22 03:34:52;;;;;;;3.47;3.17;;;;;;;;;;5033220;28;20590;-73
2023/07/22 03:37:20;;;;;;;4.10;3.07;;;;;;;;;;5046912;28;20623;-74
2023/07/22 03:39:50;;;;;;;4.97;3.33;;;;;;;;;;5052176;28;20650;-74
2023/07/22 03:42:18;;;;;;;3.20;3.00;;;;;;;;;;5051534;28;20605;-74
2023/07/22 03:44:47;;;;;;;8.50;3.23;;;;;;;;;;5051231;28;20615;-74
2023/07/22 03:47:15;;;;;;;3.40;3.10;;;;;;;;;;5052779;28;20615;-74
2023/07/22 03:49:44;;;;;;;3.23;2.93;;;;;;;;;;5036890;28;20620;-74
2023/07/22 03:52:14;;;;;;;7.50;3.43;;;;;;;;;;5032482;28;20622;-74
2023/07/22 03:54:42;;;;;;;3.47;3.17;;;;;;;;;;5031259;28;20618;-74
2023/07/22 03:57:11;;;;;;;4.03;3.00;;;;;;;;;;5031727;28;20619;-74
2023/07/22 03:59:40;;;;;;;3.37;3.07;;;;;;;;;;5032523;28;20757;-74
2023/07/22 04:02:09;;;;;;;2.70;2.50;;;;;;;;;;5032092;28;20684;-74
2023/07/22 04:04:37;;;;;;;5.20;3.40;;;;;;;;;;5031201;28;20602;-74
2023/07/22 04:07:07;;;;;;;3.10;2.80;;;;;;;;;;5033399;28;21211;-74
2023/07/22 04:09:35;;;;;;;3.23;3.03;;;;;;;;;;5052268;28;20590;-73
2023/07/22 04:12:04;;;;;;;3.43;3.10;;;;;;;;;;5041377;28;21428;-72
2023/07/22 04:14:34;;;;;;;4.00;2.77;;;;;;;;;;5033052;28;21064;-74
2023/07/22 04:17:02;;;;;;;4.03;3.63;;;;;;;;;;5041518;28;20627;-73
2023/07/22 04:19:30;;;;;;;3.17;2.87;;;;;;;;;;5044193;28;21196;-74
2023/07/22 04:22:00;;;;;;;3.00;2.70;;;;;;;;;;5036223;28;21242;-74
2023/07/22 04:24:28;;;;;;;5.20;3.57;;;;;;;;;;5052058;28;20589;-74
2023/07/22 04:26:57;;;;;;;3.90;3.60;;;;;;;;;;5049207;28;20731;-74
2023/07/22 04:29:28;;;;;;;4.30;3.90;;;;;;;;;;5039414;28;20598;-74
2023/07/22 04:31:59;;;;;;;3.90;3.60;;;;;;;;;;5039060;28;20598;-74
2023/07/22 04:34:30;;;;;;;4.23;3.83;;;;;;;;;;5044812;28;20630;-74
2023/07/22 04:36:58;;;;;;;4.60;3.27;;;;;;;;;;5035714;28;21100;-74
2023/07/22 04:39:26;;;;;;;3.87;3.57;;;;;;;;;;5050786;28;20651;-75
2023/07/22 04:41:54;;;;;;;4.13;3.73;;;;;;;;;;5045505;28;20594;-74
2023/07/22 04:44:23;;;;;;;3.57;3.20;;;;;;;;;;5042687;28;20631;-75
2023/07/22 04:46:52;;;;;;;4.50;3.30;;;;;;;;;;5048369;28;21147;-74
2023/07/22 04:49:22;;;;;;;7.10;4.00;;;;;;;;;;5031718;28;20628;-73
2023/07/22 04:51:50;;;;;;;4.00;3.70;;;;;;;;;;5031185;28;20594;-73
2023/07/22 04:54:19;;;;;;;4.07;3.40;;;;;;;;;;5032009;28;20623;-74
2023/07/22 04:56:47;;;;;;;5.17;4.77;;;;;;;;;;5032487;28;20594;-74
2023/07/22 04:59:16;;;;;;;8.47;4.40;;;;;;;;;;5041830;28;20643;-74
2023/07/22 05:01:44;;;;;;;4.83;4.43;;;;;;;;;;5030909;28;20616;-73
2023/07/22 05:04:13;;;;;;;4.90;3.87;;;;;;;;;;5047130;28;20625;-74
2023/07/22 05:06:42;;;;;;;5.00;4.50;;;;;;;;;;5051895;28;20692;-74
2023/07/22 05:09:11;;;;;;;7.47;4.80;;;;;;;;;;5050834;28;21142;-74
2023/07/22 05:11:39;;;;;;;5.30;4.47;;;;;;;;;;5052191;28;21301;-74
2023/07/22 05:14:07;;;;;;;3.83;3.53;;;;;;;;;;5052049;28;20673;-74
2023/07/22 05:16:35;;;;;;;4.27;3.93;;;;;;;;;;5040917;28;20597;-74
2023/07/22 05:19:04;;;;;;;5.40;4.93;;;;;;;;;;5031860;28;20670;-73
2023/07/22 05:21:32;;;;;;;4.87;4.33;;;;;;;;;;5032183;28;21199;-75
2023/07/22 05:24:02;;;;;;;10.80;4.87;;;;;;;;;;5031214;28;20602;-74
2023/07/22 05:26:31;;;;;;;5.57;4.00;;;;;;;;;;5036566;28;20619;-73
2023/07/22 05:29:00;;;;;;;5.07;4.50;;;;;;;;;;5051071;28;20613;-75
2023/07/22 05:31:28;;;;;;;4.90;4.50;;;;;;;;;;5050190;28;21059;-74
2023/07/22 05:33:56;;;;;;;4.60;4.00;;;;;;;;;;5042890;28;20620;-75
2023/07/22 05:36:24;;;;;;;4.90;4.40;;;;;;;;;;5050213;28;20598;-73
2023/07/22 05:38:53;;;;;;;5.87;4.27;;;;;;;;;;5051575;28;20926;-74
2023/07/22 05:41:22;;;;;;;5.63;5.13;;;;;;;;;;5051762;28;20585;-74
2023/07/22 05:43:51;;;;;;;4.90;4.40;;;;;;;;;;5051597;28;20610;-74
2023/07/22 05:46:19;;;;;;;6.03;4.07;;;;;;;;;;5048998;28;20970;-74
2023/07/22 05:48:47;;;;;;;4.50;3.60;;;;;;;;;;5051364;28;20601;-74
2023/07/22 05:51:16;;;;;;;5.00;3.93;;;;;;;;;;5052231;28;20615;-73
2023/07/22 05:53:44;;;;;;;9.37;4.00;;;;;;;;;;5049555;28;20696;-72
2023/07/22 05:56:12;;;;;;;4.27;3.87;;;;;;;;;;5043437;28;20814;-74
2023/07/22 05:58:42;;;;;;;4.40;4.00;;;;;;;;;;5044276;28;20695;-68
2023/07/22 06:01:11;;;;;;;4.43;3.87;;;;;;;;;;5048254;28;20714;-68
2023/07/22 06:03:40;;;;;;;4.93;4.20;;;;;;;;;;5050668;28;20901;-69
2023/07/22 06:06:08;;;;;;;4.60;3.87;;;;;;;;;;5047803;28;20698;-68
2023/07/22 06:08:36;;;;;;;3.47;3.20;;;;;;;;;;5044987;28;20700;-67
2023/07/22 06:11:05;;;;;;;7.90;3.27;;;;;;;;;;5047568;28;20770;-68
2023/07/22 06:13:33;;;;;;;3.83;3.53;;;;;;;;;;5046327;28;20671;-68
2023/07/22 06:16:03;;;;;;;4.80;4.47;;;;;;;;;;5048115;28;20691;-68
2023/07/22 06:18:31;;;;;;;3.40;3.10;;;;;;;;;;5052877;28;20767;-68
2023/07/22 06:21:00;;;;;;;3.80;3.50;;;;;;;;;;5052457;28;20774;-68
2023/07/22 06:23:28;;;;;;;4.37;3.97;;;;;;;;;;5055350;28;20661;-67
2023/07/22 06:25:56;;;;;;;3.90;3.60;;;;;;;;;;5056087;28;20702;-68
2023/07/22 06:28:24;;;;;;;3.63;3.33;;;;;;;;;;5051810;28;21027;-69
2023/07/22 06:30:52;;;;;;;3.37;3.17;;;;;;;;;;5051067;28;20697;-70
2023/07/22 06:33:22;;;;;;;3.73;3.13;;;;;;;;;;5057129;28;20708;-69
2023/07/22 06:35:50;;;;;;;4.53;3.30;;;;;;;;;;5054245;28;20689;-68
2023/07/22 06:38:18;;;;;;;3.57;3.27;;;;;;;;;;5054319;28;20776;-68
2023/07/22 06:40:47;;;;;;;3.77;3.43;;;;;;;;;;5050039;28;20731;-67
2023/07/22 06:43:15;;;;;;;4.00;3.60;;;;;;;;;;5045989;28;20676;-70
2023/07/22 06:45:44;;;;;;;3.80;3.50;;;;;;;;;;5046482;28;20728;-68
2023/07/22 06:48:12;;;;;;;3.67;3.37;;;;;;;;;;5046460;28;20683;-68
2023/07/22 06:50:41;;;;;;;2.77;2.57;;;;;;;;;;5047732;28;20707;-68
2023/07/22 06:53:10;;;;;;;5.97;2.97;;;;;;;;;;5049434;28;20688;-68
2023/07/22 06:55:38;;;;;;;6.90;3.07;;;;;;;;;;5046849;28;20697;-68
2023/07/22 06:58:07;;;;;;;3.30;3.10;;;;;;;;;;5060369;28;21034;-68
2023/07/22 07:00:35;;;;;;;4.20;2.90;;;;;;;;;;5047820;28;20735;-68
2023/07/22 07:03:03;;;;;;;3.70;3.10;;;;;;;;;;5056336;28;20777;-67
2023/07/22 07:05:31;;;;;;;3.10;2.80;;;;;;;;;;5064148;28;20671;-68
2023/07/22 07:08:01;;;;;;;3.57;3.00;;;;;;;;;;5067655;28;20655;-67
2023/07/22 07:10:29;;;;;;;6.90;2.97;;;;;;;;;;5066408;28;20718;-69
2023/07/22 07:12:58;;;;;;;4.93;2.67;;;;;;;;;;5063899;28;20691;-67
2023/07/22 07:15:26;;;;;;;3.13;2.90;;;;;;;;;;5048018;28;20723;-68
2023/07/22 07:17:54;;;;;;;2.83;2.63;;;;;;;;;;5045988;28;20687;-67
2023/07/22 07:20:22;;;;;;;2.43;2.23;;;;;;;;;;5050209;28;20766;-70
2023/07/22 07:22:50;;;;;;;6.60;2.37;;;;;;;;;;5055681;28;20680;-68
2023/07/22 07:25:20;;;;;;;2.60;2.40;;;;;;;;;;5054755;28;20660;-69
2023/07/22 07:27:48;;;;;;;2.80;2.40;;;;;;;;;;5053681;28;20669;-68
2023/07/22 07:30:16;;;;;;;2.50;2.30;;;;;;;;;;5065487;28;20799;-68
2023/07/22 07:32:45;;;;;;;3.63;3.33;;;;;;;;;;5055295;28;20723;-71
2023/07/22 07:35:13;;;;;;;3.63;2.20;;;;;;;;;;5047357;28;20655;-72
2023/07/22 07:37:41;;;;;;;2.97;2.70;;;;;;;;;;5062809;28;21039;-68
2023/07/22 07:40:10;;;;;;;3.87;2.70;;;;;;;;;;5066445;28;21285;-70
2023/07/22 07:42:40;;;;;;;2.73;2.10;;;;;;;;;;5054010;28;20753;-68
2023/07/22 07:45:09;;;;;;;2.93;2.73;;;;;;;;;;5062809;28;20687;-70
2023/07/22 07:47:37;;;;;;;7.60;2.40;;;;;;;;;;5060168;28;20639;-67
2023/07/22 07:50:06;;;;;;;2.70;2.30;;;;;;;;;;5065207;28;20738;-68
2023/07/22 07:52:34;;;;;;;3.30;3.00;;;;;;;;;;5056605;28;20727;-67
2023/07/22 07:55:03;;;;;;;5.57;2.70;;;;;;;;;;5058001;28;20770;-67
2023/07/22 07:57:31;;;;;;;2.40;2.30;;;;;;;;;;5048918;28;20719;-67
2023/07/22 08:00:00;;;;;;;6.23;2.67;;;;;;;;;;5050206;28;20695;-68
2023/07/22 08:02:29;;;;;;;2.67;2.57;;;;;;;;;;5054733;28;20675;-68
2023/07/22 08:04:58;;;;;;;5.63;2.90;;;;;;;;;;5061731;28;20706;-68
2023/07/22 08:07:26;;;;;;;2.80;2.60;;;;;;;;;;5059169;28;20695;-67
2023/07/22 08:09:54;;;;;;;2.57;2.47;;;;;;;;;;5054554;28;20691;-68
2023/07/22 08:12:23;;;;;;;2.63;2.53;;;;;;;;;;5047555;28;20723;-67
2023/07/22 08:14:51;;;;;;;3.50;2.90;;;;;;;;;;5063335;28;20695;-69
2023/07/22 08:17:21;;;;;;;2.77;2.67;;;;;;;;;;5061320;28;20698;-69
2023/07/22 08:19:51;;;;;;;3.13;2.97;;;;;;;;;;5057761;28;20691;-67
2023/07/22 08:22:19;;;;;;;7.13;2.77;;;;;;;;;;5063093;28;20738;-68
2023/07/22 08:24:47;;;;;;;3.40;3.10;;;;;;;;;;5062402;28;20687;-67
2023/07/22 08:27:15;;;;;;;2.90;2.80;;;;;;;;;;5053962;28;20627;-68
2023/07/22 08:29:44;;;;;;;3.97;3.67;;;;;;;;;;5061263;28;20695;-72
2023/07/22 08:32:12;;;;;;;3.50;3.30;;;;;;;;;;5059767;28;20702;-68
2023/07/22 08:34:41;;;;;;;3.30;3.03;;;;;;;;;;5061660;28;20722;-68
2023/07/22 08:37:10;;;;;;;4.30;3.27;;;;;;;;;;5063605;28;20702;-69
2023/07/22 08:39:38;;;;;;;3.30;3.10;;;;;;;;;;5067857;28;20630;-69
2023/07/22 08:42:07;;;;;;;3.90;3.53;;;;;;;;;;5062784;28;21087;-68
2023/07/22 08:44:37;;;;;;;3.40;3.20;;;;;;;;;;5060411;28;20691;-69
2023/07/22 08:47:06;;;;;;;3.67;3.37;;;;;;;;;;5043267;28;20730;-67
2023/07/22 08:49:36;;;;;;;10.13;3.57;;;;;;;;;;5051036;28;20722;-70
2023/07/22 08:52:07;;;;;;;3.53;3.23;;;;;;;;;;5049137;28;20677;-69
2023/07/22 08:54:36;;;;;;;3.27;3.07;;;;;;;;;;5043650;28;20652;-67
2023/07/22 08:57:04;;;;;;;3.27;3.13;;;;;;;;;;5053437;28;20635;-69
2023/07/22 08:59:33;;;;;;;3.23;3.03;;;;;;;;;;5065027;28;21239;-66
2023/07/22 09:02:01;;;;;;;2.80;2.70;;;;;;;;;;5059627;28;20722;-68
2023/07/22 09:04:30;;;;;;;4.23;2.60;;;;;;;;;;5052552;28;20711;-68
2023/07/22 09:06:58;;;;;;;3.97;3.20;;;;;;;;;;5045088;28;20695;-67
2023/07/22 09:09:28;;;;;;;3.23;3.03;;;;;;;;;;5054586;28;21046;-70
2023/07/22 09:11:57;;;;;;;3.10;3.00;;;;;;;;;;5047109;28;20763;-69
2023/07/22 09:14:25;;;;;;;3.40;3.03;;;;;;;;;;5042159;28;20743;-68
2023/07/22 09:16:54;;;;;;;3.43;3.23;;;;;;;;;;5044377;28;20679;-70
2023/07/22 09:19:22;;;;;;;3.10;2.90;;;;;;;;;;5044762;28;20696;-68
2023/07/22 09:21:50;;;;;;;3.03;2.93;;;;;;;;;;5044447;28;20728;-67
2023/07/22 09:24:22;;;;;;;3.43;3.20;;;;;;;;;;5044304;28;20672;-66
2023/07/22 09:26:52;;;;;;;3.80;3.60;;;;;;;;;;5043862;28;20680;-69
2023/07/22 09:29:33;;;;;;;5.57;3.83;;;;;;;;;;5044633;28;20727;-67
2023/07/22 09:32:03;;;;;;;3.07;2.97;;;;;;;;;;5044094;28;20667;-67
2023/07/22 09:34:31;;;;;;;3.37;3.17;;;;;;;;;;5032392;28;20703;-75
2023/07/22 09:37:01;;;;;;;3.30;3.20;;;;;;;;;;5035076;28;20631;-73
2023/07/22 09:39:29;;;;;;;3.00;2.80;;;;;;;;;;5032920;28;20635;-74
2023/07/22 09:42:01;;;;;;;3.60;3.30;;;;;;;;;;5032848;28;21211;-73
2023/07/22 09:44:31;;;;;;;3.77;3.47;;;;;;;;;;5032657;28;20584;-74
2023/07/22 09:46:59;;;;;;;4.10;3.30;;;;;;;;;;5032687;28;20612;-75
2023/07/22 09:49:28;;;;;;;3.77;3.30;;;;;;;;;;5032052;28;20670;-74
2023/07/22 09:51:56;;;;;;;3.37;3.27;;;;;;;;;;5034990;28;20614;-73
2023/07/22 09:54:24;;;;;;;7.43;3.53;;;;;;;;;;5035457;28;20611;-73
2023/07/22 09:56:52;;;;;;;3.90;3.70;;;;;;;;;;5035458;28;20630;-74
2023/07/22 09:59:23;;;;;;;3.50;3.27;;;;;;;;;;5044525;28;20695;-74
2023/07/22 10:01:52;;;;;;;3.13;3.03;;;;;;;;;;5054484;28;20638;-74
2023/07/22 10:04:39;;;;;;;4.47;3.30;;;;;;;;;;5049371;28;20600;-74
2023/07/22 10:07:10;;;;;;;3.90;3.60;;;;;;;;;;5034880;28;20661;-74
2023/07/22 10:09:39;;;;;;;5.50;4.10;;;;;;;;;;5041333;28;20611;-74
2023/07/22 10:12:08;;;;;;;3.80;3.20;;;;;;;;;;5034789;28;20643;-74
2023/07/22 10:14:41;;;;;;;9.00;4.60;;;;;;;;;;5034270;28;21259;-74
2023/07/22 10:17:10;;;;;;;3.53;3.17;;;;;;;;;;5035643;28;21158;-73
2023/07/22 10:19:39;;;;;;;4.37;4.17;;;;;;;;;;5040106;28;20697;-73
2023/07/22 10:22:09;;;;;;;3.80;3.50;;;;;;;;;;5034289;28;20670;-71
2023/07/22 10:24:38;;;;;;;4.23;3.20;;;;;;;;;;5034437;28;20614;-74
2023/07/22 10:27:06;;;;;;;3.83;3.40;;;;;;;;;;5033837;28;20619;-74
2023/07/22 10:29:35;;;;;;;3.20;3.00;;;;;;;;;;5044894;28;20638;-72
2023/07/22 10:32:05;;;;;;;3.73;3.53;;;;;;;;;;5045033;28;20624;-73
2023/07/22 10:34:33;;;;;;;3.73;3.40;;;;;;;;;;5035389;28;20618;-73
2023/07/22 10:37:04;;;;;;;3.70;3.50;;;;;;;;;;5046301;28;20627;-73
2023/07/22 10:39:32;;;;;;;2.80;2.70;;;;;;;;;;5054512;28;20606;-73
2023/07/22 10:42:04;;;;;;;3.80;3.60;;;;;;;;;;5032540;28;20689;-73
2023/07/22 10:44:33;;;;;;;3.63;3.33;;;;;;;;;;5034449;28;20590;-73
2023/07/22 10:47:03;;;;;;;3.63;3.53;;;;;;;;;;5034141;28;20630;-73
2023/07/22 10:49:46;;;;;;;3.77;3.50;;;;;;;;;;5037427;28;20608;-73
2023/07/22 10:52:14;;;;;;;9.27;3.30;;;;;;;;;;5053734;28;20575;-71
2023/07/22 10:54:43;;;;;;;3.37;3.07;;;;;;;;;;5046814;28;20678;-72
2023/07/22 10:57:26;;;;;;;3.40;3.20;;;;;;;;;;5072339;28;20640;-72
2023/07/22 10:59:57;;;;;;;4.17;3.20;;;;;;;;;;5067519;28;20628;-72
2023/07/22 11:02:25;;;;;;;3.30;3.20;;;;;;;;;;5041478;28;21007;-72
2023/07/22 11:04:54;;;;;;;3.70;3.40;;;;;;;;;;5033685;28;20636;-72
2023/07/22 11:07:32;;;;;;;3.50;3.20;;;;;;;;;;5033596;28;20624;-70
2023/07/22 11:10:12;;;;;;;6.80;6.30;;;;;;;;;;5044734;28;20824;-72
2023/07/22 11:12:40;;;;;;;4.07;3.40;;;;;;;;;;5033157;28;20629;-72
2023/07/22 11:15:09;;;;;;;4.00;3.70;;;;;;;;;;5047427;28;21003;-72
2023/07/22 11:17:37;;;;;;;4.00;3.80;;;;;;;;;;5037365;28;20650;-72
2023/07/22 11:20:07;;;;;;;3.30;3.13;;;;;;;;;;5033221;28;20615;-71
2023/07/22 11:22:35;;;;;;;3.80;3.70;;;;;;;;;;5034532;28;20651;-71
2023/07/22 11:25:04;;;;;;;3.70;3.50;;;;;;;;;;5044401;28;20621;-71
2023/07/22 11:27:32;;;;;;;3.93;3.20;;;;;;;;;;5049270;28;20628;-74
2023/07/22 11:30:01;;;;;;;3.97;3.87;;;;;;;;;;5035220;28;20624;-71
2023/07/22 11:32:29;;;;;;;3.60;3.40;;;;;;;;;;5052615;28;20615;-71
2023/07/22 11:34:57;;;;;;;3.83;3.63;;;;;;;;;;5037029;28;20632;-71
2023/07/22 11:37:28;;;;;;;18.30;16.50;;;;;;;;;;5033518;28;20650;-71
2023/07/22 11:40:01;;;;;;;5.63;4.70;;;;;;;;;;5045677;28;20604;-72
2023/07/22 11:42:30;;;;;;;4.43;4.13;;;;;;;;;;5033744;28;21216;-71
2023/07/22 11:44:58;;;;;;;8.30;3.70;;;;;;;;;;5032853;28;21174;-72
2023/07/22 11:47:31;;;;;;;3.87;3.67;;;;;;;;;;5036304;28;20700;-72
2023/07/22 11:49:59;;;;;;;4.40;4.00;;;;;;;;;;5032059;28;20600;-73
2023/07/22 11:52:29;;;;;;;6.90;6.50;;;;;;;;;;5031435;28;21135;-71
2023/07/22 11:55:03;;;;;;;4.10;3.87;;;;;;;;;;5033162;28;20616;-71
2023/07/22 11:57:31;;;;;;;5.93;4.63;;;;;;;;;;5032493;28;20599;-72
2023/07/22 12:00:00;;;;;;;156.30;139.63;;;;;;;;;;5033777;28;20631;-71
2023/07/22 12:02:29;;;;;;;4.73;4.30;;;;;;;;;;5031081;28;21025;-72
2023/07/22 12:04:58;;;;;;;4.30;4.00;;;;;;;;;;5047044;28;20634;-71
2023/07/22 12:07:27;;;;;;;16.20;14.73;;;;;;;;;;5051761;28;20617;-71
2023/07/22 12:09:57;;;;;;;7.70;7.00;;;;;;;;;;5050088;28;20659;-71
2023/07/22 12:12:33;;;;;;;4.87;4.53;;;;;;;;;;5032260;28;20631;-71
2023/07/22 12:15:04;;;;;;;4.47;4.17;;;;;;;;;;5031477;28;20666;-71
2023/07/22 12:17:44;;;;;;;3.60;3.40;;;;;;;;;;5032736;28;20592;-71
2023/07/22 12:20:13;;;;;;;5.30;5.00;;;;;;;;;;5036002;28;20633;-72
2023/07/22 12:22:41;;;;;;;3.90;3.70;;;;;;;;;;5038639;28;20620;-71
2023/07/22 12:25:11;;;;;;;5.20;4.80;;;;;;;;;;5032367;28;20607;-71
2023/07/22 12:27:39;;;;;;;5.03;4.77;;;;;;;;;;5032345;28;20646;-71
2023/07/22 12:30:08;;;;;;;5.00;4.53;;;;;;;;;;5033468;28;20627;-73
2023/07/22 12:32:36;;;;;;;3.93;3.73;;;;;;;;;;5034954;28;20757;-71
2023/07/22 12:35:04;;;;;;;4.57;4.07;;;;;;;;;;5032585;28;20610;-71
2023/07/22 12:37:33;;;;;;;4.87;4.53;;;;;;;;;;5049256;28;20615;-71
2023/07/22 12:40:01;;;;;;;4.73;4.43;;;;;;;;;;5050008;28;20705;-71
2023/07/22 12:42:31;;;;;;;5.33;4.20;;;;;;;;;;5051474;28;21180;-72
2023/07/22 12:44:59;;;;;;;4.67;4.37;;;;;;;;;;5051744;28;20610;-72
2023/07/22 12:47:27;;;;;;;4.20;4.00;;;;;;;;;;5052371;28;20614;-71
2023/07/22 12:49:55;;;;;;;5.20;4.80;;;;;;;;;;5051346;28;20948;-72
2023/07/22 12:52:23;;;;;;;5.50;5.10;;;;;;;;;;5035704;28;21076;-71
2023/07/22 12:54:52;;;;;;;4.90;4.50;;;;;;;;;;5049996;28;20623;-71
2023/07/22 12:57:20;;;;;;;5.27;5.07;;;;;;;;;;5050386;28;20619;-72
2023/07/22 12:59:49;;;;;;;5.30;4.80;;;;;;;;;;5038210;28;21162;-72
2023/07/22 13:02:18;;;;;;;4.53;4.20;;;;;;;;;;5039608;28;20635;-72
2023/07/22 13:04:46;;;;;;;4.83;4.53;;;;;;;;;;5036093;28;20674;-72
2023/07/22 13:07:14;;;;;;;4.40;4.20;;;;;;;;;;5049390;28;20630;-71
2023/07/22 13:09:46;;;;;;;5.53;5.13;;;;;;;;;;5038335;28;21038;-71
2023/07/22 13:12:14;;;;;;;5.13;4.73;;;;;;;;;;5044392;28;20988;-71
2023/07/22 13:14:42;;;;;;;5.10;4.60;;;;;;;;;;5041102;28;20623;-71
2023/07/22 13:17:12;;;;;;;4.97;4.67;;;;;;;;;;5031918;28;20603;-71
2023/07/22 13:19:40;;;;;;;5.57;5.00;;;;;;;;;;5031031;28;21300;-71
2023/07/22 13:22:08;;;;;;;5.80;5.50;;;;;;;;;;5031306;28;20659;-72
2023/07/22 13:24:36;;;;;;;5.30;5.00;;;;;;;;;;5031379;28;20648;-67
2023/07/22 13:27:04;;;;;;;4.00;3.80;;;;;;;;;;5037238;28;20615;-69
2023/07/22 13:29:33;;;;;;;5.07;4.67;;;;;;;;;;5036443;28;20611;-68
2023/07/22 13:32:01;;;;;;;4.30;4.10;;;;;;;;;;5037865;28;20952;-67
2023/07/22 13:34:30;;;;;;;4.73;4.43;;;;;;;;;;5037049;28;20620;-67
2023/07/22 13:36:59;;;;;;;5.67;5.27;;;;;;;;;;5037231;28;21189;-67
2023/07/22 13:39:27;;;;;;;5.00;4.70;;;;;;;;;;5036147;28;20626;-68
2023/07/22 13:41:55;;;;;;;9.03;8.33;;;;;;;;;;5037192;28;20608;-68
2023/07/22 13:44:23;;;;;;;4.67;4.40;;;;;;;;;;5036397;28;20659;-68
2023/07/22 13:46:51;;;;;;;9.07;8.40;;;;;;;;;;5037161;28;20669;-68
2023/07/22 13:49:20;;;;;;;4.60;4.40;;;;;;;;;;5036183;28;20661;-67
2023/07/22 13:51:50;;;;;;;4.90;4.60;;;;;;;;;;5036190;28;20622;-69
2023/07/22 13:54:19;;;;;;;5.93;5.50;;;;;;;;;;5035670;28;20615;-67
2023/07/22 13:56:48;;;;;;;4.83;4.53;;;;;;;;;;5042378;28;20623;-68
2023/07/22 13:59:16;;;;;;;7.37;6.87;;;;;;;;;;5040589;28;20646;-68
2023/07/22 14:01:44;;;;;;;5.57;5.07;;;;;;;;;;5038516;28;20632;-69
2023/07/22 14:04:12;;;;;;;8.17;4.60;;;;;;;;;;5039928;28;20667;-68
2023/07/22 14:06:41;;;;;;;5.53;4.80;;;;;;;;;;5039298;28;20633;-68
2023/07/22 14:09:10;;;;;;;5.30;4.30;;;;;;;;;;5041235;28;20616;-68
2023/07/22 14:11:39;;;;;;;5.10;4.70;;;;;;;;;;5039050;28;20657;-68
2023/07/22 14:14:07;;;;;;;4.60;4.30;;;;;;;;;;5056298;28;20615;-68
2023/07/22 14:16:35;;;;;;;5.27;4.60;;;;;;;;;;5054067;28;20627;-68
2023/07/22 14:19:03;;;;;;;4.70;4.30;;;;;;;;;;5041846;28;20627;-69
2023/07/22 14:21:31;;;;;;;10.67;4.63;;;;;;;;;;5034998;28;20654;-68
2023/07/22 14:24:00;;;;;;;4.10;3.90;;;;;;;;;;5038646;28;20658;-68
2023/07/22 14:26:29;;;;;;;5.23;4.93;;;;;;;;;;5054452;28;21047;-67
2023/07/22 14:28:57;;;;;;;7.90;4.70;;;;;;;;;;5052696;28;20630;-68
2023/07/22 14:31:25;;;;;;;5.03;4.70;;;;;;;;;;5042013;28;20989;-68
2023/07/22 14:33:54;;;;;;;5.37;4.97;;;;;;;;;;5034049;28;21203;-68
2023/07/22 14:36:22;;;;;;;4.30;4.10;;;;;;;;;;5031493;28;20998;-68
2023/07/22 14:38:50;;;;;;;5.10;4.80;;;;;;;;;;5050571;28;20632;-68
2023/07/22 14:41:19;;;;;;;5.50;5.10;;;;;;;;;;5045173;28;20629;-68
2023/07/22 14:43:48;;;;;;;4.73;4.53;;;;;;;;;;5053419;28;21057;-68
2023/07/22 14:46:16;;;;;;;4.87;4.47;;;;;;;;;;5053398;28;20618;-69
2023/07/22 14:48:45;;;;;;;4.50;4.30;;;;;;;;;;5053878;28;20680;-68
2023/07/22 14:51:13;;;;;;;5.70;5.40;;;;;;;;;;5051766;28;20634;-69
2023/07/22 14:53:42;;;;;;;5.43;4.70;;;;;;;;;;5053701;28;20629;-68